地図

経路データ

SID SEASON NUMBER BASIN SUBBASIN NAME ISO_TIME NATURE LAT LON WMO_WIND WMO_PRES WMO_AGENCY TRACK_TYPE DIST2LAND LANDFALL IFLAG USA_AGENCY USA_ATCF_ID USA_LAT USA_LON USA_RECORD USA_STATUS USA_WIND USA_PRES USA_SSHS USA_R34_NE USA_R34_SE USA_R34_SW USA_R34_NW USA_R50_NE USA_R50_SE USA_R50_SW USA_R50_NW USA_R64_NE USA_R64_SE USA_R64_SW USA_R64_NW USA_POCI USA_ROCI USA_RMW USA_EYE TOKYO_LAT TOKYO_LON TOKYO_GRADE TOKYO_WIND TOKYO_PRES TOKYO_R50_DIR TOKYO_R50_LONG TOKYO_R50_SHORT TOKYO_R30_DIR TOKYO_R30_LONG TOKYO_R30_SHORT TOKYO_LAND CMA_LAT CMA_LON CMA_CAT CMA_WIND CMA_PRES HKO_LAT HKO_LON HKO_CAT HKO_WIND HKO_PRES NEWDELHI_LAT NEWDELHI_LON NEWDELHI_GRADE NEWDELHI_WIND NEWDELHI_PRES NEWDELHI_CI NEWDELHI_DP NEWDELHI_POCI REUNION_LAT REUNION_LON REUNION_TYPE REUNION_WIND REUNION_PRES REUNION_TNUM REUNION_CI REUNION_RMW REUNION_R34_NE REUNION_R34_SE REUNION_R34_SW REUNION_R34_NW REUNION_R50_NE REUNION_R50_SE REUNION_R50_SW REUNION_R50_NW REUNION_R64_NE REUNION_R64_SE REUNION_R64_SW REUNION_R64_NW BOM_LAT BOM_LON BOM_TYPE BOM_WIND BOM_PRES BOM_TNUM BOM_CI BOM_RMW BOM_R34_NE BOM_R34_SE BOM_R34_SW BOM_R34_NW BOM_R50_NE BOM_R50_SE BOM_R50_SW BOM_R50_NW BOM_R64_NE BOM_R64_SE BOM_R64_SW BOM_R64_NW BOM_ROCI BOM_POCI BOM_EYE BOM_POS_METHOD BOM_PRES_METHOD NADI_LAT NADI_LON NADI_CAT NADI_WIND NADI_PRES WELLINGTON_LAT WELLINGTON_LON WELLINGTON_WIND WELLINGTON_PRES DS824_LAT DS824_LON DS824_STAGE DS824_WIND DS824_PRES TD9636_LAT TD9636_LON TD9636_STAGE TD9636_WIND TD9636_PRES TD9635_LAT TD9635_LON TD9635_WIND TD9635_PRES TD9635_ROCI NEUMANN_LAT NEUMANN_LON NEUMANN_CLASS NEUMANN_WIND NEUMANN_PRES MLC_LAT MLC_LON MLC_CLASS MLC_WIND MLC_PRES USA_GUST BOM_GUST BOM_GUST_PER REUNION_GUST REUNION_GUST_PER USA_SEAHGT USA_SEARAD_NE USA_SEARAD_SE USA_SEARAD_SW USA_SEARAD_NW STORM_SPEED STORM_DIR
1970286N25292 1970 133 NA NA NOT_NAMED 1970-10-12 12:00:00 SS 24.5000 -68.5000 30 1003 hurdat_atl main 568 568 O_____________ hurdat_atl AL181970 24.5000 -68.5000 SD 30 1003 -2 7 46
1970286N25292 1970 133 NA NA NOT_NAMED 1970-10-12 15:00:00 SS 24.7477 -68.2152 main 599 599 P_____________ AL181970 24.7477 -68.2152 SD 30 -2 7 48
1970286N25292 1970 133 NA NA NOT_NAMED 1970-10-12 18:00:00 SS 25.0000 -67.9000 30 hurdat_atl main 641 641 O_____________ hurdat_atl AL181970 25.0000 -67.9000 SD 30 -2 8 51
1970286N25292 1970 133 NA NA NOT_NAMED 1970-10-12 21:00:00 SS 25.2570 -67.5173 main 686 686 P_____________ AL181970 25.2570 -67.5173 SD 30 -2 10 58
1970286N25292 1970 133 NA NA NOT_NAMED 1970-10-13 00:00:00 SS 25.5000 -67.0000 30 hurdat_atl main 727 727 O_____________ hurdat_atl AL181970 25.5000 -67.0000 SD 30 -2 12 68
1970286N25292 1970 133 NA NA NOT_NAMED 1970-10-13 03:00:00 SS 25.7077 -66.2948 main 778 778 P_____________ AL181970 25.7077 -66.2948 SD 32 -2 14 74
1970286N25292 1970 133 NA NA NOT_NAMED 1970-10-13 06:00:00 SS 25.9000 -65.5000 35 hurdat_atl main 834 834 O_____________ hurdat_atl AL181970 25.9000 -65.5000 SS 35 -2 15 75
1970286N25292 1970 133 NA NA NOT_NAMED 1970-10-13 09:00:00 SS 26.1006 -64.6677 main 865 865 P_____________ AL181970 26.1006 -64.6677 SS 35 -2 14 73
1970286N25292 1970 133 NA NA NOT_NAMED 1970-10-13 12:00:00 SS 26.3000 -64.0000 35 1002 hurdat_atl main 898 898 O_____________ hurdat_atl AL181970 26.3000 -64.0000 SS 35 1002 -2 10 65
1970286N25292 1970 133 NA NA NOT_NAMED 1970-10-13 15:00:00 SS 26.5068 -63.6947 main 926 926 P_____________ AL181970 26.5068 -63.6947 SS 35 1001 -2 5 42
1970286N25292 1970 133 NA NA NOT_NAMED 1970-10-13 18:00:00 SS 26.7000 -63.6000 35 hurdat_atl main 950 950 I_____________ hurdat_atl AL181970 26.7000 -63.6000 SS 35 1001 -2 5 35
1970286N25292 1970 133 NA NA NOT_NAMED 1970-10-13 21:00:00 SS 26.8793 -63.4075 main 976 976 P_____________ AL181970 26.8793 -63.4075 SS 37 1001 -2 3 16
1970286N25292 1970 133 NA NA NOT_NAMED 1970-10-14 00:00:00 SS 27.0000 -63.5000 40 1001 hurdat_atl main 985 973 O_____________ hurdat_atl AL181970 27.0000 -63.5000 SS 40 1001 -2 7 283
1970286N25292 1970 133 NA NA NOT_NAMED 1970-10-14 03:00:00 SS 27.0233 -64.1301 main 973 963 P_____________ AL181970 27.0233 -64.1301 SS 40 1001 -2 13 270
1970286N25292 1970 133 NA NA NOT_NAMED 1970-10-14 06:00:00 SS 27.0000 -65.0000 40 hurdat_atl main 963 931 I_____________ hurdat_atl AL181970 27.0000 -65.0000 SS 40 1001 -2 15 268
1970286N25292 1970 133 NA NA NOT_NAMED 1970-10-14 09:00:00 SS 26.9779 -65.8102 main 931 900 P_____________ AL181970 26.9779 -65.8102 SS 42 1001 -2 13 270
1970286N25292 1970 133 NA NA NOT_NAMED 1970-10-14 12:00:00 SS 27.0000 -66.5000 45 1001 hurdat_atl main 900 892 O_____________ hurdat_atl AL181970 27.0000 -66.5000 SS 45 1001 -2 10 279
1970286N25292 1970 133 NA NA NOT_NAMED 1970-10-14 15:00:00 SS 27.1344 -66.9398 main 895 892 P_____________ AL181970 27.1344 -66.9398 SS 45 1000 -2 7 296
1970286N25292 1970 133 NA NA NOT_NAMED 1970-10-14 18:00:00 SS 27.3000 -67.2000 45 hurdat_atl main 899 893 I_____________ hurdat_atl AL181970 27.3000 -67.2000 SS 45 999 -2 5 303
1970286N25292 1970 133 NA NA NOT_NAMED 1970-10-14 21:00:00 SS 27.3999 -67.3951 main 895 888 P_____________ AL181970 27.3999 -67.3951 SS 47 998 -2 3 307
1970286N25292 1970 133 NA NA NOT_NAMED 1970-10-15 00:00:00 SS 27.5000 -67.5000 50 997 hurdat_atl main 897 897 O_____________ hurdat_atl AL181970 27.5000 -67.5000 SS 50 997 -2 3 327
1970286N25292 1970 133 NA NA NOT_NAMED 1970-10-15 03:00:00 SS 27.6500 -67.5800 main 899 899 P_____________ AL181970 27.6500 -67.5800 SS 52 996 -2 3 344
1970286N25292 1970 133 NA NA NOT_NAMED 1970-10-15 06:00:00 SS 27.8000 -67.6000 55 hurdat_atl main 917 917 I_____________ hurdat_atl AL181970 27.8000 -67.6000 SS 55 996 -2 2 4
1970286N25292 1970 133 NA NA NOT_NAMED 1970-10-15 09:00:00 SS 27.8625 -67.5650 main 926 926 P_____________ AL181970 27.8625 -67.5650 SS 55 995 -2 2 25
1970286N25292 1970 133 NA NA NOT_NAMED 1970-10-15 12:00:00 SS 28.0000 -67.5000 55 995 hurdat_atl main 941 941 O_____________ hurdat_atl AL181970 28.0000 -67.5000 SS 55 995 -2 5 10
1970286N25292 1970 133 NA NA NOT_NAMED 1970-10-15 15:00:00 SS 28.3250 -67.4721 main 967 967 P_____________ AL181970 28.3250 -67.4721 SS 57 994 -2 8 6
1970286N25292 1970 133 NA NA NOT_NAMED 1970-10-15 18:00:00 SS 28.8000 -67.4000 60 hurdat_atl main 1018 1018 I_____________ hurdat_atl AL181970 28.8000 -67.4000 SS 60 993 -2 11 11
1970286N25292 1970 133 NA NA NOT_NAMED 1970-10-15 21:00:00 SS 29.4076 -67.2230 main 1051 1021 P_____________ AL181970 29.4076 -67.2230 SS 60 992 -2 13 16
1970286N25292 1970 133 NA NA NOT_NAMED 1970-10-16 00:00:00 TS 30.0000 -67.0000 60 991 hurdat_atl main 1021 1007 O_____________ hurdat_atl AL181970 30.0000 -67.0000 TS 60 991 0 10 20
1970286N25292 1970 133 NA NA NOT_NAMED 1970-10-16 03:00:00 TS 30.3799 -66.8144 main 1007 1000 P_____________ AL181970 30.3799 -66.8144 TS 60 990 0 8 26
1970286N25292 1970 133 NA NA NOT_NAMED 1970-10-16 06:00:00 TS 30.7000 -66.6000 60 hurdat_atl main 1002 991 I_____________ hurdat_atl AL181970 30.7000 -66.6000 TS 60 990 0 8 29
1970286N25292 1970 133 NA NA NOT_NAMED 1970-10-16 09:00:00 TS 31.0770 -66.3665 main 991 991 P_____________ AL181970 31.0770 -66.3665 TS 62 989 0 10 33
1970286N25292 1970 133 NA NA NOT_NAMED 1970-10-16 12:00:00 TS 31.5000 -66.0000 65 989 hurdat_atl main 999 999 O_____________ hurdat_atl AL181970 31.5000 -66.0000 HU 65 989 1 12 42
1970286N25292 1970 133 NA NA NOT_NAMED 1970-10-16 15:00:00 TS 31.9473 -65.4312 main 1026 1021 P_____________ AL181970 31.9473 -65.4312 HU 67 986 1 15 48
1970286N25292 1970 133 NA NA NOT_NAMED 1970-10-16 18:00:00 TS 32.5000 -64.7000 70 hurdat_atl main 1057 1057 I_____________ hurdat_atl AL181970 32.5000 -64.7000 HU 70 984 1 18 48
1970286N25292 1970 133 NA NA NOT_NAMED 1970-10-16 21:00:00 TS 33.1382 -63.8490 main 1101 1057 P_____________ AL181970 33.1382 -63.8490 HU 72 982 1 21 43
1970286N25292 1970 133 NA NA NOT_NAMED 1970-10-17 00:00:00 TS 34.0000 -63.0000 75 980 hurdat_atl main 1053 969 O_____________ hurdat_atl AL181970 34.0000 -63.0000 HU 75 980 1 24 33
1970286N25292 1970 133 NA NA NOT_NAMED 1970-10-17 03:00:00 TS 35.1748 -62.2760 main 958 847 P_____________ AL181970 35.1748 -62.2760 HU 80 978 1 27 23
1970286N25292 1970 133 NA NA NOT_NAMED 1970-10-17 06:00:00 TS 36.5000 -61.7000 85 hurdat_atl main 836 730 I_____________ hurdat_atl AL181970 36.5000 -61.7000 HU 85 977 2 26 14
1970286N25292 1970 133 NA NA NOT_NAMED 1970-10-17 09:00:00 TS 37.6704 -61.4960 main 720 619 P_____________ AL181970 37.6704 -61.4960 HU 87 975 2 26 13
1970286N25292 1970 133 NA NA NOT_NAMED 1970-10-17 12:00:00 TS 39.0000 -61.0000 90 974 hurdat_atl main 615 533 O_____________ hurdat_atl AL181970 39.0000 -61.0000 HU 90 974 2 33 28
1970286N25292 1970 133 NA NA NOT_NAMED 1970-10-17 15:00:00 TS 40.6020 -59.5285 main 526 418 P_____________ AL181970 40.6020 -59.5285 HU 80 977 1 44 37
1970286N25292 1970 133 NA NA NOT_NAMED 1970-10-17 18:00:00 TS 42.5000 -57.5000 70 980 hurdat_atl main 414 245 O_____________ hurdat_atl AL181970 42.5000 -57.5000 HU 70 980 1 51 37
1970286N25292 1970 133 NA NA NOT_NAMED 1970-10-17 21:00:00 TS 44.6811 -55.3187 main 235 0 P_____________ AL181970 44.6811 -55.3187 HU 62 0 55 35
1970286N25292 1970 133 NA NA NOT_NAMED 1970-10-18 00:00:00 ET 47.0000 -53.0000 55 hurdat_atl main 0 O_____________ hurdat_atl AL181970 47.0000 -53.0000 EX 55 -4 56 34

IBTrACS Databaseについて

本データベースは、米国NOAAが公開する1842年以降の世界の熱帯低気圧のベストトラックデータアーカイブInternational Best Track Archive for Climate Stewardship (IBTrACS)を、ウェブで閲覧しやすい形式に変換したものです。

最終更新日:2021-12-03